Time;durP1;ratioP1;P1;durP2;ratioP2;P2;SDS_P1;SDS_P2;PMS_P1;PMS_P2;Temp;Humidity;BMP_temperature;BMP_pressure;BME280_temperature;BME280_humidity;BME280_pressure;Samples;Min_cycle;Max_cycle;Signal;HPM_P1;HPM_P2
2024/01/27 00:02:20;;;;;;;13.35;2.50;;;;;;;-148.88;100.00;-17125.47;5075682;28;20023;-84
2024/01/27 00:04:45;;;;;;;9.43;2.38;;;;;;;-148.88;100.00;-17125.47;5075420;28;20048;-83
2024/01/27 00:07:10;;;;;;;14.10;2.30;;;;;;;-148.88;100.00;-17125.47;5075655;28;20028;-83
2024/01/27 00:09:36;;;;;;;17.98;2.97;;;;;;;-148.88;100.00;-17125.47;5075698;28;20020;-83
2024/01/27 00:12:01;;;;;;;10.60;2.47;;;;;;;-148.88;100.00;-17125.47;5074851;28;20028;-82
2024/01/27 00:14:30;;;;;;;10.65;2.63;;;;;;;-148.88;100.00;-17125.47;5072080;28;20024;-82
2024/01/27 00:16:56;;;;;;;10.52;1.98;;;;;;;-148.88;100.00;-17125.47;5072099;28;20028;-82
2024/01/27 00:19:21;;;;;;;9.63;2.83;;;;;;;-148.88;100.00;-17125.47;5072150;28;20174;-83
2024/01/27 00:21:46;;;;;;;11.73;2.55;;;;;;;-148.88;100.00;-17125.47;5073552;28;20386;-83
2024/01/27 00:24:14;;;;;;;11.00;2.97;;;;;;;-148.88;100.00;-17125.47;5073522;28;20020;-83
2024/01/27 00:26:39;;;;;;;9.00;1.67;;;;;;;-148.88;100.00;-17125.47;5074024;28;20028;-82
2024/01/27 00:29:04;;;;;;;10.27;2.45;;;;;;;-148.88;100.00;-17125.47;5072260;28;20031;-82
2024/01/27 00:31:30;;;;;;;20.20;1.90;;;;;;;-148.88;100.00;-17125.47;5073618;28;20017;-82
2024/01/27 00:33:55;;;;;;;6.97;2.00;;;;;;;-148.88;100.00;-17125.47;5073473;28;20047;-84
2024/01/27 00:36:20;;;;;;;12.75;1.65;;;;;;;-148.88;100.00;-17125.47;5074422;28;20032;-85
2024/01/27 00:38:46;;;;;;;9.02;1.65;;;;;;;-148.88;100.00;-17125.47;5074703;28;20028;-85
2024/01/27 00:41:18;;;;;;;17.70;2.25;;;;;;;-148.88;100.00;-17125.47;5076856;28;20132;-85
2024/01/27 00:43:43;;;;;;;13.65;2.30;;;;;;;-148.88;100.00;-17125.47;5073232;28;20052;-85
2024/01/27 00:46:08;;;;;;;16.58;2.40;;;;;;;-148.88;100.00;-17125.47;5074895;28;20082;-86
2024/01/27 00:48:34;;;;;;;9.35;1.75;;;;;;;-148.88;100.00;-17125.47;5072138;28;20475;-85
2024/01/27 00:50:59;;;;;;;9.38;1.90;;;;;;;-148.88;100.00;-17125.47;5073329;28;20016;-85
2024/01/27 00:53:24;;;;;;;11.85;1.77;;;;;;;-148.88;100.00;-17125.47;5072123;28;20024;-83
2024/01/27 00:55:50;;;;;;;13.10;2.03;;;;;;;-148.88;100.00;-17125.47;5073193;28;20111;-85
2024/01/27 00:58:16;;;;;;;22.58;3.22;;;;;;;-148.88;100.00;-17125.47;5073586;28;20107;-85
2024/01/27 01:00:41;;;;;;;6.38;1.35;;;;;;;-148.88;100.00;-17125.47;5073594;28;20028;-85
2024/01/27 01:03:07;;;;;;;17.55;2.05;;;;;;;-148.88;100.00;-17125.47;5072172;28;20024;-85
2024/01/27 01:05:32;;;;;;;11.25;2.00;;;;;;;-148.88;100.00;-17125.47;5073453;28;20540;-84
2024/01/27 01:07:57;;;;;;;12.30;2.63;;;;;;;-148.88;100.00;-17125.47;5072210;28;20024;-84
2024/01/27 01:10:23;;;;;;;11.63;2.10;;;;;;;-148.88;100.00;-17125.47;5073190;28;20108;-84
2024/01/27 01:12:48;;;;;;;13.93;2.20;;;;;;;-148.88;100.00;-17125.47;5073974;28;20074;-85
2024/01/27 01:15:14;;;;;;;13.02;2.08;;;;;;;-148.88;100.00;-17125.47;5071929;28;20393;-84
2024/01/27 01:17:39;;;;;;;17.15;2.42;;;;;;;-148.88;100.00;-17125.47;5076250;28;20021;-84
2024/01/27 01:20:08;;;;;;;10.27;1.58;;;;;;;-148.88;100.00;-17125.47;5077408;28;20028;-84
2024/01/27 01:22:33;;;;;;;9.90;2.80;;;;;;;-148.88;100.00;-17125.47;5075424;28;20120;-84
2024/01/27 01:24:59;;;;;;;10.20;2.53;;;;;;;-148.88;100.00;-17125.47;5075533;28;20123;-85
2024/01/27 01:27:24;;;;;;;13.68;1.77;;;;;;;-148.88;100.00;-17125.47;5076557;28;20070;-84
2024/01/27 01:29:49;;;;;;;13.25;2.92;;;;;;;-148.88;100.00;-17125.47;5076603;28;20493;-84
2024/01/27 01:32:18;;;;;;;15.18;1.92;;;;;;;-148.88;100.00;-17125.47;5075075;28;20025;-84
2024/01/27 01:34:46;;;;;;;13.45;2.72;;;;;;;-148.88;100.00;-17125.47;5075403;28;20101;-84
2024/01/27 01:37:13;;;;;;;7.85;2.30;;;;;;;-148.88;100.00;-17125.47;5074832;28;20031;-83
2024/01/27 01:39:38;;;;;;;16.10;2.05;;;;;;;-148.88;100.00;-17125.47;5076143;28;20044;-84
2024/01/27 01:42:04;;;;;;;8.43;1.75;;;;;;;-148.88;100.00;-17125.47;5075454;28;20024;-84
2024/01/27 01:44:31;;;;;;;13.52;2.63;;;;;;;-148.88;100.00;-17125.47;5075082;28;20023;-84
2024/01/27 01:47:01;;;;;;;17.23;2.58;;;;;;;-148.88;100.00;-17125.47;5100078;28;20017;-83
2024/01/27 01:49:26;;;;;;;15.75;2.33;;;;;;;-148.88;100.00;-17125.47;5099958;28;20039;-85
2024/01/27 01:51:52;;;;;;;13.93;1.90;;;;;;;-148.88;100.00;-17125.47;5081606;28;20025;-85
2024/01/27 01:54:18;;;;;;;13.43;2.40;;;;;;;-148.88;100.00;-17125.47;5077393;28;20024;-84
2024/01/27 01:56:43;;;;;;;26.98;4.13;;;;;;;-148.88;100.00;-17125.47;5074621;28;20111;-84
2024/01/27 01:59:09;;;;;;;13.73;2.42;;;;;;;-148.88;100.00;-17125.47;5076320;28;20060;-84
2024/01/27 02:01:34;;;;;;;10.25;2.90;;;;;;;-148.88;100.00;-17125.47;5075040;28;20031;-84
2024/01/27 02:03:59;;;;;;;13.30;2.38;;;;;;;-148.88;100.00;-17125.47;5075616;28;20027;-83
2024/01/27 02:06:25;;;;;;;20.35;2.63;;;;;;;-148.88;100.00;-17125.47;5076011;28;20017;-84
2024/01/27 02:08:51;;;;;;;7.25;2.47;;;;;;;-148.88;100.00;-17125.47;5074339;28;20028;-84
2024/01/27 02:11:16;;;;;;;13.93;2.63;;;;;;;-148.88;100.00;-17125.47;5075879;28;20020;-84
2024/01/27 02:13:42;;;;;;;14.45;2.45;;;;;;;-148.88;100.00;-17125.47;5075540;28;20032;-84
2024/01/27 02:16:08;;;;;;;20.27;2.60;;;;;;;-148.88;100.00;-17125.47;5075513;28;20065;-84
2024/01/27 02:18:33;;;;;;;15.65;2.83;;;;;;;-148.88;100.00;-17125.47;5075597;28;20059;-84
2024/01/27 02:20:58;;;;;;;11.15;2.97;;;;;;;-148.88;100.00;-17125.47;5074527;28;20075;-84
2024/01/27 02:23:24;;;;;;;7.72;2.53;;;;;;;-148.88;100.00;-17125.47;5074158;28;20067;-83
2024/01/27 02:25:50;;;;;;;12.63;2.03;;;;;;;-148.88;100.00;-17125.47;5075074;28;20024;-84
2024/01/27 02:28:16;;;;;;;13.95;2.95;;;;;;;-148.88;100.00;-17125.47;5073397;28;20032;-84
2024/01/27 02:30:41;;;;;;;17.85;2.00;;;;;;;-148.88;100.00;-17125.47;5075654;28;20030;-84
2024/01/27 02:33:07;;;;;;;9.77;1.92;;;;;;;-148.88;100.00;-17125.47;5075586;28;20027;-84
2024/01/27 02:35:32;;;;;;;10.50;2.30;;;;;;;-148.88;100.00;-17125.47;5076173;28;20047;-84
2024/01/27 02:37:57;;;;;;;14.57;2.20;;;;;;;-148.88;100.00;-17125.47;5076374;28;20504;-84
2024/01/27 02:40:23;;;;;;;11.20;2.00;;;;;;;-148.88;100.00;-17125.47;5076211;28;20027;-85
2024/01/27 02:42:48;;;;;;;10.85;2.70;;;;;;;-148.88;100.00;-17125.47;5077526;28;20108;-84
2024/01/27 02:45:14;;;;;;;10.40;2.85;;;;;;;-148.88;100.00;-17125.47;5076519;28;20024;-84
2024/01/27 02:47:39;;;;;;;9.95;3.00;;;;;;;-148.88;100.00;-17125.47;5076596;28;20017;-84
2024/01/27 02:50:08;;;;;;;12.15;2.30;;;;;;;-148.88;100.00;-17125.47;5075247;28;20104;-84
2024/01/27 02:52:34;;;;;;;8.45;2.20;;;;;;;-148.88;100.00;-17125.47;5075076;28;20442;-84
2024/01/27 02:55:00;;;;;;;8.65;1.92;;;;;;;-148.88;100.00;-17125.47;5073630;28;20017;-84
2024/01/27 02:57:26;;;;;;;10.05;2.85;;;;;;;-148.88;100.00;-17125.47;5073829;28;20489;-84
2024/01/27 02:59:51;;;;;;;7.95;2.17;;;;;;;-148.88;100.00;-17125.47;5074518;28;20028;-84
2024/01/27 03:02:17;;;;;;;13.73;2.45;;;;;;;-148.88;100.00;-17125.47;5073748;28;20195;-84
2024/01/27 03:04:42;;;;;;;17.65;3.13;;;;;;;-148.88;100.00;-17125.47;5074887;28;20028;-84
2024/01/27 03:07:08;;;;;;;16.00;2.45;;;;;;;-148.88;100.00;-17125.47;5074523;28;20024;-84
2024/01/27 03:09:33;;;;;;;17.20;2.75;;;;;;;-148.88;100.00;-17125.47;5074520;28;20021;-84
2024/01/27 03:11:58;;;;;;;19.52;3.13;;;;;;;-148.88;100.00;-17125.47;5074950;28;20070;-83
2024/01/27 03:14:24;;;;;;;16.63;2.67;;;;;;;-148.88;100.00;-17125.47;5074695;28;20438;-84
2024/01/27 03:16:49;;;;;;;14.27;1.77;;;;;;;-148.88;100.00;-17125.47;5074689;28;20440;-84
2024/01/27 03:19:15;;;;;;;16.38;2.63;;;;;;;-148.88;100.00;-17125.47;5074941;28;20070;-83
2024/01/27 03:21:40;;;;;;;7.88;2.20;;;;;;;-148.88;100.00;-17125.47;5074683;28;20028;-84
2024/01/27 03:24:06;;;;;;;14.82;2.58;;;;;;;-148.88;100.00;-17125.47;5073378;28;20037;-84
2024/01/27 03:26:31;;;;;;;12.07;2.40;;;;;;;-148.88;100.00;-17125.47;5073236;28;20035;-84
2024/01/27 03:28:57;;;;;;;15.88;3.10;;;;;;;-148.88;100.00;-17125.47;5074594;28;20549;-83
2024/01/27 03:31:23;;;;;;;11.10;2.78;;;;;;;-148.88;100.00;-17125.47;5072917;28;20021;-84
2024/01/27 03:33:48;;;;;;;6.18;2.08;;;;;;;-148.88;100.00;-17125.47;5072679;28;20043;-84
2024/01/27 03:36:14;;;;;;;21.48;2.90;;;;;;;-148.88;100.00;-17125.47;5074376;28;20024;-84
2024/01/27 03:38:43;;;;;;;9.55;2.80;;;;;;;-148.88;100.00;-17125.47;5072629;28;20130;-84
2024/01/27 03:41:08;;;;;;;20.40;3.28;;;;;;;-148.88;100.00;-17125.47;5074191;28;20016;-84
2024/01/27 03:43:34;;;;;;;14.57;3.05;;;;;;;-148.88;100.00;-17125.47;5071949;28;20093;-84
2024/01/27 03:46:00;;;;;;;10.95;3.00;;;;;;;-148.88;100.00;-17125.47;5072398;28;20082;-84
2024/01/27 03:48:25;;;;;;;18.30;2.80;;;;;;;-148.88;100.00;-17125.47;5073922;28;20024;-84
2024/01/27 03:50:50;;;;;;;11.30;3.15;;;;;;;-148.88;100.00;-17125.47;5072723;28;20082;-84
2024/01/27 03:53:16;;;;;;;18.45;3.30;;;;;;;-148.88;100.00;-17125.47;5073532;28;20028;-84
2024/01/27 03:55:41;;;;;;;14.02;3.63;;;;;;;-148.88;100.00;-17125.47;5072286;28;20112;-84
2024/01/27 03:58:07;;;;;;;11.50;2.97;;;;;;;-148.88;100.00;-17125.47;5073757;28;20374;-84
2024/01/27 04:00:33;;;;;;;14.95;3.25;;;;;;;-148.88;100.00;-17125.47;5072404;28;20035;-84
2024/01/27 04:03:01;;;;;;;14.82;2.53;;;;;;;-148.88;100.00;-17125.47;5072052;28;20090;-84
2024/01/27 04:05:29;;;;;;;10.93;2.90;;;;;;;-148.88;100.00;-17125.47;5071986;28;20038;-85
2024/01/27 04:07:54;;;;;;;12.48;3.20;;;;;;;-148.88;100.00;-17125.47;5073485;28;20039;-85
2024/01/27 04:10:21;;;;;;;10.23;3.00;;;;;;;-148.88;100.00;-17125.47;5073281;28;20386;-85
2024/01/27 04:12:46;;;;;;;12.10;2.53;;;;;;;-148.88;100.00;-17125.47;5073189;28;20017;-84
2024/01/27 04:15:12;;;;;;;9.80;2.72;;;;;;;-148.88;100.00;-17125.47;5073844;28;20077;-85
2024/01/27 04:17:38;;;;;;;17.35;3.58;;;;;;;-148.88;100.00;-17125.47;5071865;28;20027;-85
2024/01/27 04:20:04;;;;;;;11.93;2.70;;;;;;;-148.88;100.00;-17125.47;5072169;28;20024;-85
2024/01/27 04:22:30;;;;;;;15.00;4.03;;;;;;;-148.88;100.00;-17125.47;5073060;28;20099;-84
2024/01/27 04:24:58;;;;;;;14.00;3.25;;;;;;;-148.88;100.00;-17125.47;5072185;28;20052;-84
2024/01/27 04:27:24;;;;;;;12.00;3.67;;;;;;;-148.88;100.00;-17125.47;5072019;28;20029;-85
2024/01/27 04:29:49;;;;;;;15.75;3.92;;;;;;;-148.88;100.00;-17125.47;5071764;28;20051;-85
2024/01/27 04:32:15;;;;;;;13.35;3.50;;;;;;;-148.88;100.00;-17125.47;5073569;28;20063;-85
2024/01/27 04:34:40;;;;;;;20.30;3.90;;;;;;;-148.88;100.00;-17125.47;5073438;28;20025;-84
2024/01/27 04:37:06;;;;;;;11.63;3.75;;;;;;;-148.88;100.00;-17125.47;5073058;28;20020;-85
2024/01/27 04:39:31;;;;;;;15.60;4.72;;;;;;;-148.88;100.00;-17125.47;5072076;28;20430;-84
2024/01/27 04:41:57;;;;;;;15.15;3.47;;;;;;;-148.88;100.00;-17125.47;5072024;28;20406;-84
2024/01/27 04:44:22;;;;;;;13.85;3.75;;;;;;;-148.88;100.00;-17125.47;5071912;28;20368;-85
2024/01/27 04:46:48;;;;;;;16.17;3.70;;;;;;;-148.88;100.00;-17125.47;5073548;28;20109;-85
2024/01/27 04:49:15;;;;;;;15.43;4.07;;;;;;;-148.88;100.00;-17125.47;5073540;28;20027;-86
2024/01/27 04:51:41;;;;;;;14.93;3.85;;;;;;;-148.88;100.00;-17125.47;5074783;28;20027;-85
2024/01/27 04:54:07;;;;;;;14.77;4.45;;;;;;;-148.88;100.00;-17125.47;5076894;28;20239;-85
2024/01/27 04:56:32;;;;;;;12.07;4.75;;;;;;;-148.88;100.00;-17125.47;5075657;28;20042;-84
2024/01/27 04:58:58;;;;;;;14.05;4.55;;;;;;;-148.88;100.00;-17125.47;5076647;28;20025;-84
2024/01/27 05:01:23;;;;;;;19.67;5.35;;;;;;;-148.88;100.00;-17125.47;5077689;28;20498;-84
2024/01/27 05:03:48;;;;;;;13.82;3.53;;;;;;;-148.88;100.00;-17125.47;5077334;28;20107;-84
2024/01/27 05:06:14;;;;;;;17.63;4.55;;;;;;;-148.88;100.00;-17125.47;5076365;28;20058;-84
2024/01/27 05:08:39;;;;;;;19.05;4.35;;;;;;;-148.88;100.00;-17125.47;5076223;28;20024;-84
2024/01/27 05:11:05;;;;;;;10.40;4.50;;;;;;;-148.88;100.00;-17125.47;5075711;28;20472;-84
2024/01/27 05:13:30;;;;;;;17.42;4.47;;;;;;;-148.88;100.00;-17125.47;5076958;28;20024;-84
2024/01/27 05:15:58;;;;;;;22.38;4.95;;;;;;;-148.88;100.00;-17125.47;5076322;28;20582;-83
2024/01/27 05:18:24;;;;;;;15.13;4.05;;;;;;;-148.88;100.00;-17125.47;5077231;28;20097;-85
2024/01/27 05:20:49;;;;;;;12.35;4.13;;;;;;;-148.88;100.00;-17125.47;5075259;28;20032;-84
2024/01/27 05:23:14;;;;;;;10.15;5.78;;;;;;;-148.88;100.00;-17125.47;5077039;28;20437;-84
2024/01/27 05:25:40;;;;;;;22.75;4.80;;;;;;;-148.88;100.00;-17125.47;5077325;28;20135;-84
2024/01/27 05:28:05;;;;;;;15.90;4.25;;;;;;;-148.88;100.00;-17125.47;5076842;28;20032;-84
2024/01/27 05:30:31;;;;;;;24.08;6.65;;;;;;;-148.88;100.00;-17125.47;5076810;28;20027;-84
2024/01/27 05:32:56;;;;;;;13.18;4.43;;;;;;;-148.88;100.00;-17125.47;5076795;28;20073;-84
2024/01/27 05:35:27;;;;;;;12.80;4.53;;;;;;;-148.88;100.00;-17125.47;5074871;28;20053;-86
2024/01/27 05:37:53;;;;;;;12.73;4.18;;;;;;;-148.88;100.00;-17125.47;5076491;28;20031;-86
2024/01/27 05:40:19;;;;;;;12.90;4.45;;;;;;;-148.88;100.00;-17125.47;5076282;28;20070;-86
2024/01/27 05:42:45;;;;;;;28.42;4.38;;;;;;;-148.88;100.00;-17125.47;5074890;28;20447;-86
2024/01/27 05:45:10;;;;;;;17.23;5.35;;;;;;;-148.88;100.00;-17125.47;5076124;28;20099;-86
2024/01/27 05:47:36;;;;;;;12.38;4.45;;;;;;;-148.88;100.00;-17125.47;5075724;28;20028;-86
2024/01/27 05:50:02;;;;;;;16.45;4.80;;;;;;;-148.88;100.00;-17125.47;5076754;28;20040;-84
2024/01/27 05:52:28;;;;;;;15.77;4.78;;;;;;;-148.88;100.00;-17125.47;5076048;28;20017;-83
2024/01/27 05:54:54;;;;;;;11.63;4.68;;;;;;;-148.88;100.00;-17125.47;5076082;28;20371;-83
2024/01/27 05:57:22;;;;;;;10.95;5.25;;;;;;;-148.88;100.00;-17125.47;5076167;28;20028;-83
2024/01/27 05:59:47;;;;;;;12.40;5.65;;;;;;;-148.88;100.00;-17125.47;5075063;28;20032;-83
2024/01/27 06:02:13;;;;;;;19.98;6.07;;;;;;;-148.88;100.00;-17125.47;5074059;28;20376;-83
2024/01/27 06:04:39;;;;;;;10.95;4.95;;;;;;;-148.88;100.00;-17125.47;5075996;28;20048;-84
2024/01/27 06:07:04;;;;;;;16.92;5.25;;;;;;;-148.88;100.00;-17125.47;5074900;28;20028;-82
2024/01/27 06:09:29;;;;;;;17.00;4.65;;;;;;;-148.88;100.00;-17125.47;5074888;28;20020;-83
2024/01/27 06:11:59;;;;;;;12.15;5.20;;;;;;;-148.88;100.00;-17125.47;5076114;28;20490;-83
2024/01/27 06:14:24;;;;;;;14.85;4.85;;;;;;;-148.88;100.00;-17125.47;5075656;28;20502;-83
2024/01/27 06:16:51;;;;;;;18.10;5.45;;;;;;;-148.88;100.00;-17125.47;5074752;28;20024;-83
2024/01/27 06:19:19;;;;;;;15.73;5.57;;;;;;;-148.88;100.00;-17125.47;5075151;28;20020;-81
2024/01/27 06:21:44;;;;;;;18.52;6.07;;;;;;;-148.88;100.00;-17125.47;5075070;28;20074;-83
2024/01/27 06:24:10;;;;;;;14.65;5.47;;;;;;;-148.88;100.00;-17125.47;5074298;28;20028;-82
2024/01/27 06:26:35;;;;;;;17.08;5.20;;;;;;;-148.88;100.00;-17125.47;5074432;28;20028;-83
2024/01/27 06:29:02;;;;;;;17.98;5.68;;;;;;;-148.88;100.00;-17125.47;5075876;28;20031;-82
2024/01/27 06:31:27;;;;;;;14.55;5.35;;;;;;;-148.88;100.00;-17125.47;5075417;28;20063;-82
2024/01/27 06:33:53;;;;;;;15.15;5.72;;;;;;;-148.88;100.00;-17125.47;5075566;28;20025;-83
2024/01/27 06:36:18;;;;;;;19.42;5.18;;;;;;;-148.88;100.00;-17125.47;5075393;28;20081;-83
2024/01/27 06:38:44;;;;;;;12.52;5.78;;;;;;;-148.88;100.00;-17125.47;5075730;28;20036;-83
2024/01/27 06:41:10;;;;;;;13.88;5.97;;;;;;;-148.88;100.00;-17125.47;5075601;28;20119;-83
2024/01/27 06:43:35;;;;;;;17.20;5.65;;;;;;;-148.88;100.00;-17125.47;5073862;28;20024;-83
2024/01/27 06:46:00;;;;;;;14.70;5.78;;;;;;;-148.88;100.00;-17125.47;5074439;28;20031;-82
2024/01/27 06:48:26;;;;;;;16.63;5.90;;;;;;;-148.88;100.00;-17125.47;5075001;28;20036;-85
2024/01/27 06:50:52;;;;;;;16.15;6.95;;;;;;;-148.88;100.00;-17125.47;5073071;28;20029;-85
2024/01/27 06:53:20;;;;;;;15.75;5.55;;;;;;;-148.88;100.00;-17125.47;5074810;28;20024;-85
2024/01/27 06:55:45;;;;;;;14.52;6.22;;;;;;;-148.88;100.00;-17125.47;5073514;28;20375;-85
2024/01/27 06:58:11;;;;;;;16.55;6.93;;;;;;;-148.88;100.00;-17125.47;5074875;28;20023;-85
2024/01/27 07:00:36;;;;;;;17.15;7.05;;;;;;;-148.88;100.00;-17125.47;5074701;28;20026;-85
2024/01/27 07:03:02;;;;;;;17.83;7.32;;;;;;;-148.88;100.00;-17125.47;5073347;28;20028;-85
2024/01/27 07:05:27;;;;;;;20.30;6.47;;;;;;;-148.88;100.00;-17125.47;5073369;28;20074;-85
2024/01/27 07:07:53;;;;;;;21.02;7.45;;;;;;;-148.88;100.00;-17125.47;5074613;28;20032;-86
2024/01/27 07:10:18;;;;;;;27.05;7.78;;;;;;;-148.88;100.00;-17125.47;5074442;28;20032;-85
2024/01/27 07:12:44;;;;;;;19.63;7.82;;;;;;;-148.88;100.00;-17125.47;5074439;28;20414;-85
2024/01/27 07:15:09;;;;;;;17.65;6.45;;;;;;;-148.88;100.00;-17125.47;5074269;28;20024;-85
2024/01/27 07:17:37;;;;;;;19.67;7.57;;;;;;;-148.88;100.00;-17125.47;5074481;28;20023;-85
2024/01/27 07:20:02;;;;;;;22.67;7.93;;;;;;;-148.88;100.00;-17125.47;5074887;28;20051;-86
2024/01/27 07:22:28;;;;;;;15.35;7.00;;;;;;;-148.88;100.00;-17125.47;5073126;28;20056;-86
2024/01/27 07:25:01;;;;;;;16.45;7.78;;;;;;;-148.88;100.00;-17125.47;5072857;28;20036;-86
2024/01/27 07:27:26;;;;;;;17.37;7.90;;;;;;;-148.88;100.00;-17125.47;5072842;28;20020;-86
2024/01/27 07:29:51;;;;;;;23.88;8.93;;;;;;;-148.88;100.00;-17125.47;5072709;28;20113;-86
2024/01/27 07:32:17;;;;;;;24.90;7.78;;;;;;;-148.88;100.00;-17125.47;5073089;28;20037;-85
2024/01/27 07:34:43;;;;;;;21.30;8.30;;;;;;;-148.88;100.00;-17125.47;5072668;28;20024;-86
2024/01/27 07:37:09;;;;;;;18.70;7.75;;;;;;;-148.88;100.00;-17125.47;5072464;28;20040;-85
2024/01/27 07:39:35;;;;;;;22.48;9.63;;;;;;;-148.88;100.00;-17125.47;5073797;28;20021;-86
2024/01/27 07:42:00;;;;;;;21.38;8.80;;;;;;;-148.88;100.00;-17125.47;5073308;28;20025;-85
2024/01/27 07:44:26;;;;;;;20.38;8.18;;;;;;;-148.88;100.00;-17125.47;5072472;28;20444;-85
2024/01/27 07:46:52;;;;;;;18.60;8.05;;;;;;;-148.88;100.00;-17125.47;5074048;28;20062;-85
2024/01/27 07:49:18;;;;;;;22.95;8.95;;;;;;;-148.88;100.00;-17125.47;5073884;28;20111;-86
2024/01/27 07:51:43;;;;;;;22.58;8.45;;;;;;;-148.88;100.00;-17125.47;5072365;28;20111;-86
2024/01/27 07:54:09;;;;;;;23.58;9.50;;;;;;;-148.88;100.00;-17125.47;5072439;28;20103;-85
2024/01/27 07:56:34;;;;;;;23.10;8.27;;;;;;;-148.88;100.00;-17125.47;5071913;28;20544;-86
2024/01/27 07:59:00;;;;;;;25.60;8.57;;;;;;;-148.88;100.00;-17125.47;5072111;28;20016;-86
2024/01/27 08:01:25;;;;;;;26.42;9.95;;;;;;;-148.88;100.00;-17125.47;5073725;28;20020;-86
2024/01/27 08:03:50;;;;;;;17.67;8.10;;;;;;;-148.88;100.00;-17125.47;5072009;28;20048;-84
2024/01/27 08:06:18;;;;;;;19.67;8.95;;;;;;;-148.88;100.00;-17125.47;5072644;28;20102;-84
2024/01/27 08:08:48;;;;;;;19.98;9.65;;;;;;;-148.88;100.00;-17125.47;5072349;28;20040;-84
2024/01/27 08:11:15;;;;;;;22.92;9.23;;;;;;;-148.88;100.00;-17125.47;5073938;28;20046;-85
2024/01/27 08:13:41;;;;;;;23.15;9.10;;;;;;;-148.88;100.00;-17125.47;5073493;28;20070;-85
2024/01/27 08:16:09;;;;;;;17.05;7.93;;;;;;;-148.88;100.00;-17125.47;5072027;28;20025;-85
2024/01/27 08:18:34;;;;;;;25.13;9.05;;;;;;;-148.88;100.00;-17125.47;5073162;28;20017;-85
2024/01/27 08:21:03;;;;;;;29.45;8.95;;;;;;;-148.88;100.00;-17125.47;5073688;28;20425;-85
2024/01/27 08:23:31;;;;;;;21.63;9.48;;;;;;;-148.88;100.00;-17125.47;5071999;28;20043;-85
2024/01/27 08:25:57;;;;;;;31.65;9.98;;;;;;;-148.88;100.00;-17125.47;5072409;28;20032;-85
2024/01/27 08:28:22;;;;;;;23.10;9.07;;;;;;;-148.88;100.00;-17125.47;5073616;28;20026;-84
2024/01/27 08:30:48;;;;;;;18.45;7.60;;;;;;;-148.88;100.00;-17125.47;5072786;28;20055;-85
2024/01/27 08:33:14;;;;;;;22.52;10.07;;;;;;;-148.88;100.00;-17125.47;5073000;28;20118;-85
2024/01/27 08:35:39;;;;;;;23.08;8.68;;;;;;;-148.88;100.00;-17125.47;5074698;28;20056;-84
2024/01/27 08:38:06;;;;;;;20.90;7.90;;;;;;;-148.88;100.00;-17125.47;5074109;28;20115;-85
2024/01/27 08:40:32;;;;;;;25.17;8.88;;;;;;;-148.88;100.00;-17125.47;5073942;28;20505;-85
2024/01/27 08:42:57;;;;;;;15.93;7.57;;;;;;;-148.88;100.00;-17125.47;5073778;28;20498;-85
2024/01/27 08:45:23;;;;;;;23.92;8.25;;;;;;;-148.88;100.00;-17125.47;5073845;28;20028;-84
2024/01/27 08:47:49;;;;;;;23.90;8.75;;;;;;;-148.88;100.00;-17125.47;5076187;28;20428;-85
2024/01/27 08:50:14;;;;;;;25.80;9.30;;;;;;;-148.88;100.00;-17125.47;5073931;28;20050;-85
2024/01/27 08:52:39;;;;;;;26.80;8.50;;;;;;;-148.88;100.00;-17125.47;5077158;28;20024;-85
2024/01/27 08:55:05;;;;;;;16.88;7.32;;;;;;;-148.88;100.00;-17125.47;5078756;28;20021;-85
2024/01/27 08:57:31;;;;;;;17.15;7.50;;;;;;;-148.88;100.00;-17125.47;5076300;28;20020;-85
2024/01/27 08:59:56;;;;;;;17.95;8.43;;;;;;;-148.88;100.00;-17125.47;5074053;28;20386;-85
2024/01/27 09:02:21;;;;;;;20.45;8.32;;;;;;;-148.88;100.00;-17125.47;5072984;28;20025;-85
2024/01/27 09:04:47;;;;;;;16.58;7.10;;;;;;;-148.88;100.00;-17125.47;5073405;28;20063;-85
2024/01/27 09:07:12;;;;;;;14.60;7.43;;;;;;;-148.88;100.00;-17125.47;5073614;28;20074;-86
2024/01/27 09:09:40;;;;;;;22.88;8.70;;;;;;;-148.88;100.00;-17125.47;5073727;28;20113;-85
2024/01/27 09:12:06;;;;;;;14.23;6.93;;;;;;;-148.88;100.00;-17125.47;5072121;28;20036;-85
2024/01/27 09:14:33;;;;;;;23.48;7.78;;;;;;;-148.88;100.00;-17125.47;5072066;28;20017;-85
2024/01/27 09:16:59;;;;;;;23.52;8.35;;;;;;;-148.88;100.00;-17125.47;5071672;28;20529;-84
2024/01/27 09:19:25;;;;;;;19.83;7.80;;;;;;;-148.88;100.00;-17125.47;5073982;28;20515;-84
2024/01/27 09:21:50;;;;;;;26.73;9.38;;;;;;;-148.88;100.00;-17125.47;5073355;28;20107;-85
2024/01/27 09:24:15;;;;;;;22.48;8.68;;;;;;;-148.88;100.00;-17125.47;5072331;28;20024;-85
2024/01/27 09:26:41;;;;;;;34.40;9.85;;;;;;;-148.88;100.00;-17125.47;5074290;28;20028;-85
2024/01/27 09:29:07;;;;;;;17.38;6.95;;;;;;;-148.88;100.00;-17125.47;5073274;28;20038;-86
2024/01/27 09:31:32;;;;;;;19.70;7.50;;;;;;;-148.88;100.00;-17125.47;5071250;28;20422;-85
2024/01/27 09:33:58;;;;;;;17.60;6.82;;;;;;;-148.88;100.00;-17125.47;5071436;28;20082;-86
2024/01/27 09:36:23;;;;;;;20.38;6.65;;;;;;;-148.88;100.00;-17125.47;5071668;28;20023;-87
2024/01/27 09:38:49;;;;;;;19.55;7.18;;;;;;;-148.88;100.00;-17125.47;5075830;28;20028;-87
2024/01/27 09:41:14;;;;;;;14.70;6.47;;;;;;;-148.88;100.00;-17125.47;5076377;28;20024;-85
2024/01/27 09:43:44;;;;;;;14.05;6.50;;;;;;;-148.88;100.00;-17125.47;5076035;28;20025;-85
2024/01/27 09:46:17;;;;;;;19.42;7.43;;;;;;;-148.88;100.00;-17125.47;5074840;28;20066;-87
2024/01/27 09:48:43;;;;;;;24.58;7.28;;;;;;;-148.88;100.00;-17125.47;5076340;28;20025;-84
2024/01/27 09:51:09;;;;;;;15.40;6.82;;;;;;;-148.88;100.00;-17125.47;5075368;28;20034;-86
2024/01/27 09:53:38;;;;;;;19.30;7.35;;;;;;;-148.88;100.00;-17125.47;5075913;28;20024;-86
2024/01/27 09:56:04;;;;;;;17.52;7.38;;;;;;;-148.88;100.00;-17125.47;5074826;28;20021;-86
2024/01/27 09:58:30;;;;;;;16.63;6.25;;;;;;;-148.88;100.00;-17125.47;5075948;28;20054;-86
2024/01/27 10:00:58;;;;;;;15.93;5.50;;;;;;;-148.88;100.00;-17125.47;5076039;28;20517;-87
2024/01/27 10:03:28;;;;;;;17.83;6.45;;;;;;;-148.88;100.00;-17125.47;5073716;28;20383;-87
2024/01/27 10:05:55;;;;;;;18.15;6.93;;;;;;;-148.88;100.00;-17125.47;5074748;28;20118;-87
2024/01/27 10:08:24;;;;;;;16.33;6.35;;;;;;;-148.88;100.00;-17125.47;5075576;28;20020;-87
2024/01/27 10:10:59;;;;;;;14.07;6.07;;;;;;;-148.88;100.00;-17125.47;5075828;28;20025;-87
2024/01/27 10:13:27;;;;;;;16.38;6.95;;;;;;;-148.88;100.00;-17125.47;5074238;28;20027;-87
2024/01/27 10:16:06;;;;;;;20.15;6.85;;;;;;;-148.88;100.00;-17125.47;5075486;28;20032;-86
2024/01/27 10:18:33;;;;;;;16.17;6.22;;;;;;;-148.88;100.00;-17125.47;5075458;28;20032;-86
2024/01/27 10:20:59;;;;;;;17.90;6.28;;;;;;;-148.88;100.00;-17125.47;5075545;28;20043;-87
2024/01/27 10:23:25;;;;;;;14.25;6.80;;;;;;;-148.88;100.00;-17125.47;5075627;28;20359;-86
2024/01/27 10:25:51;;;;;;;18.38;6.43;;;;;;;-148.88;100.00;-17125.47;5074574;28;20033;-86
2024/01/27 10:28:17;;;;;;;16.08;6.15;;;;;;;-148.88;100.00;-17125.47;5075351;28;20551;-86
2024/01/27 10:30:43;;;;;;;27.63;7.82;;;;;;;-148.88;100.00;-17125.47;5074908;28;20021;-87
2024/01/27 10:33:10;;;;;;;11.52;6.28;;;;;;;-148.88;100.00;-17125.47;5075237;28;20016;-86
2024/01/27 10:35:35;;;;;;;14.10;6.30;;;;;;;-148.88;100.00;-17125.47;5074089;28;20078;-87
2024/01/27 10:38:01;;;;;;;18.40;5.95;;;;;;;-148.88;100.00;-17125.47;5075259;28;20024;-86
2024/01/27 10:40:28;;;;;;;13.82;5.75;;;;;;;-148.88;100.00;-17125.47;5075406;28;20466;-87
2024/01/27 10:43:04;;;;;;;13.63;5.28;;;;;;;-148.88;100.00;-17125.47;5074990;28;20107;-86
2024/01/27 10:45:35;;;;;;;15.27;6.80;;;;;;;-148.88;100.00;-17125.47;5075136;28;20025;-86
2024/01/27 10:48:03;;;;;;;15.48;5.63;;;;;;;-148.88;100.00;-17125.47;5074996;28;20112;-86
2024/01/27 10:50:28;;;;;;;19.02;5.93;;;;;;;-148.88;100.00;-17125.47;5073093;28;20135;-84